createdAt,value
2018-02-13T00:01:49.263Z,6.07
2018-02-13T00:04:17.513Z,5.83
2018-02-13T00:06:46.307Z,6.60
2018-02-13T00:09:15.396Z,6.00
2018-02-13T00:11:44.114Z,6.90
2018-02-13T00:14:11.632Z,6.87
2018-02-13T00:16:39.951Z,6.47
2018-02-13T00:19:07.505Z,5.70
2018-02-13T00:21:35.072Z,5.43
2018-02-13T00:24:03.008Z,6.07
2018-02-13T00:26:31.413Z,6.07
2018-02-13T00:28:58.930Z,6.43
2018-02-13T00:31:27.248Z,6.10
2018-02-13T00:33:54.775Z,5.97
2018-02-13T00:36:23.084Z,6.10
2018-02-13T00:38:53.504Z,5.97
2018-02-13T00:41:21.067Z,6.53
2018-02-13T00:43:48.585Z,7.37
2018-02-13T00:46:16.872Z,6.87
2018-02-13T00:48:45.340Z,7.47
2018-02-13T00:51:13.623Z,7.00
2018-02-13T00:53:42.452Z,7.03
2018-02-13T00:56:09.998Z,7.23
2018-02-13T00:58:37.558Z,7.70
2018-02-13T01:01:05.077Z,7.20
2018-02-13T01:03:34.179Z,6.67
2018-02-13T01:06:02.487Z,6.40
2018-02-13T01:08:30.004Z,6.60
2018-02-13T01:10:58.325Z,7.40
2018-02-13T01:13:25.881Z,6.60
2018-02-13T01:15:53.418Z,6.87
2018-02-13T01:18:21.303Z,6.50
2018-02-13T01:20:48.822Z,7.27
2018-02-13T01:23:17.111Z,9.20
2018-02-13T01:25:45.395Z,8.50
2018-02-13T01:28:12.972Z,9.20
2018-02-13T01:30:41.200Z,8.17
2018-02-13T01:33:09.700Z,9.03
2018-02-13T01:35:38.186Z,8.03
2018-02-13T01:38:07.476Z,9.00
2018-02-13T01:40:35.989Z,7.90
2018-02-13T01:43:03.503Z,8.53
2018-02-13T01:45:31.817Z,8.10
2018-02-13T01:47:59.368Z,8.00
2018-02-13T01:50:26.936Z,7.73
2018-02-13T01:52:55.611Z,8.00
2018-02-13T01:55:23.181Z,7.83
2018-02-13T01:57:50.704Z,7.53
2018-02-13T02:00:19.016Z,6.77
2018-02-13T02:02:46.780Z,7.23
2018-02-13T02:05:14.337Z,7.10
2018-02-13T02:07:42.539Z,7.83
2018-02-13T02:10:10.378Z,6.80
2018-02-13T02:12:37.942Z,6.87
2018-02-13T02:15:05.526Z,8.10
2018-02-13T02:17:33.451Z,7.80
2018-02-13T02:20:00.972Z,7.33
2018-02-13T02:22:28.577Z,7.97
2018-02-13T02:24:56.143Z,8.70
2018-02-13T02:27:24.456Z,8.90
2018-02-13T02:29:51.971Z,8.57
2018-02-13T02:32:19.487Z,9.17
2018-02-13T02:34:47.038Z,10.00
2018-02-13T02:37:14.609Z,9.70
2018-02-13T02:39:43.085Z,10.23
2018-02-13T02:42:11.816Z,10.13
2018-02-13T02:44:39.944Z,9.97
2018-02-13T02:47:08.259Z,10.20
2018-02-13T02:49:36.351Z,9.40
2018-02-13T02:52:03.870Z,8.50
2018-02-13T02:54:31.512Z,8.63
2018-02-13T02:56:59.817Z,7.90
2018-02-13T02:59:27.816Z,9.07
2018-02-13T03:01:55.459Z,8.63
2018-02-13T03:04:23.599Z,9.10
2018-02-13T03:06:51.884Z,8.60
2018-02-13T03:09:19.444Z,8.67
2018-02-13T03:11:46.960Z,8.80
2018-02-13T03:14:14.488Z,9.23
2018-02-13T03:16:42.022Z,10.77
2018-02-13T03:19:09.540Z,12.10
2018-02-13T03:21:37.078Z,12.23
2018-02-13T03:24:04.610Z,12.40
2018-02-13T03:26:32.939Z,11.57
2018-02-13T03:29:01.184Z,11.80
2018-02-13T03:31:28.712Z,10.70
2018-02-13T03:33:56.275Z,10.40
2018-02-13T03:36:23.794Z,10.37
2018-02-13T03:38:52.081Z,9.37
2018-02-13T03:41:20.386Z,10.03
2018-02-13T03:43:48.324Z,10.47
2018-02-13T03:46:17.139Z,9.70
2018-02-13T03:48:45.273Z,9.10
2018-02-13T03:51:13.560Z,8.93
2018-02-13T03:53:41.836Z,9.10
2018-02-13T03:56:10.142Z,10.40
2018-02-13T03:58:37.672Z,12.63
2018-02-13T04:01:08.404Z,12.73
2018-02-13T04:03:37.628Z,12.50
2018-02-13T04:06:05.147Z,12.37
2018-02-13T04:08:33.948Z,12.57
2018-02-13T04:11:02.239Z,10.53
2018-02-13T04:13:29.760Z,11.10
2018-02-13T04:15:58.083Z,9.23
2018-02-13T04:18:25.649Z,10.10
2018-02-13T04:20:53.214Z,10.10
2018-02-13T04:23:20.714Z,11.47
2018-02-13T04:25:49.033Z,11.60
2018-02-13T04:28:16.594Z,9.73
2018-02-13T04:30:44.111Z,9.27
2018-02-13T04:33:12.402Z,9.20
2018-02-13T04:35:40.680Z,9.70
2018-02-13T04:38:08.968Z,10.23
2018-02-13T04:40:36.485Z,10.67
2018-02-13T04:43:04.020Z,12.30
2018-02-13T04:45:31.537Z,11.50
2018-02-13T04:48:00.491Z,13.07
2018-02-13T04:50:28.016Z,11.70
2018-02-13T04:52:55.528Z,12.80
2018-02-13T04:55:23.822Z,12.27
2018-02-13T04:57:51.800Z,11.97
2018-02-13T05:00:19.322Z,11.03
2018-02-13T05:02:47.621Z,10.70
2018-02-13T05:05:15.558Z,11.13
2018-02-13T05:07:43.878Z,11.63
2018-02-13T05:10:11.435Z,12.13
2018-02-13T05:12:38.964Z,11.23
2018-02-13T05:15:07.379Z,10.87
2018-02-13T05:17:34.895Z,10.60
2018-02-13T05:20:03.205Z,10.70
2018-02-13T05:22:30.731Z,10.67
2018-02-13T05:24:59.028Z,14.80
2018-02-13T05:27:26.557Z,16.60
2018-02-13T05:29:54.854Z,20.97
2018-02-13T05:32:23.156Z,23.40
2018-02-13T05:34:50.667Z,26.53
2018-02-13T05:37:18.966Z,22.07
2018-02-13T05:39:46.747Z,19.63
2018-02-13T05:42:14.264Z,17.17
2018-02-13T05:44:42.906Z,17.47
2018-02-13T05:47:10.420Z,15.83
2018-02-13T05:49:37.972Z,14.53
2018-02-13T05:52:08.758Z,13.37
2018-02-13T05:54:36.681Z,12.10
2018-02-13T05:57:04.962Z,11.90
2018-02-13T05:59:47.304Z,12.40
2018-02-13T06:02:14.834Z,13.50
2018-02-13T06:04:42.356Z,16.83
2018-02-13T06:07:09.881Z,16.40
2018-02-13T06:09:37.600Z,17.83
2018-02-13T06:12:06.428Z,16.93
2018-02-13T06:14:33.960Z,17.57
2018-02-13T06:17:01.479Z,18.40
2018-02-13T06:19:29.992Z,17.80
2018-02-13T06:21:57.527Z,16.57
2018-02-13T06:24:26.140Z,17.30
2018-02-13T06:26:53.655Z,18.00
2018-02-13T06:29:21.188Z,16.20
2018-02-13T06:31:48.721Z,15.43
2018-02-13T06:34:16.628Z,15.47
2018-02-13T06:36:44.159Z,13.97
2018-02-13T06:39:11.680Z,14.37
2018-02-13T06:41:39.958Z,14.37
2018-02-13T06:44:08.254Z,16.33
2018-02-13T06:46:36.031Z,13.90
2018-02-13T06:49:05.620Z,13.70
2018-02-13T06:51:34.391Z,13.57
2018-02-13T06:54:03.124Z,13.13
2018-02-13T06:56:30.642Z,13.77
2018-02-13T06:58:58.587Z,13.60
2018-02-13T07:01:26.878Z,14.80
2018-02-13T07:03:55.171Z,14.53
2018-02-13T07:06:22.695Z,16.40
2018-02-13T07:08:51.536Z,16.87
2018-02-13T07:11:19.079Z,15.23
2018-02-13T07:13:46.591Z,17.17
2018-02-13T07:16:14.109Z,16.83
2018-02-13T07:18:41.632Z,16.90
2018-02-13T07:21:09.157Z,16.23
2018-02-13T07:23:37.474Z,15.57
2018-02-13T07:26:06.880Z,14.73
2018-02-13T07:28:34.424Z,14.17
2018-02-13T07:31:05.180Z,12.97
2018-02-13T07:33:33.024Z,13.33
2018-02-13T07:36:00.563Z,13.00
2018-02-13T07:38:29.056Z,13.87
2018-02-13T07:40:57.877Z,13.63
2018-02-13T07:43:25.407Z,13.73
2018-02-13T07:45:53.692Z,14.23
2018-02-13T07:48:21.240Z,13.13
2018-02-13T07:50:49.524Z,14.20
2018-02-13T07:53:17.059Z,14.07
2018-02-13T07:55:46.061Z,14.43
2018-02-13T07:58:15.028Z,13.67
2018-02-13T08:00:44.976Z,12.57
2018-02-13T08:03:13.259Z,12.70
2018-02-13T08:05:40.796Z,14.43
2018-02-13T08:08:09.079Z,13.40
2018-02-13T08:10:37.366Z,12.97
2018-02-13T08:13:05.436Z,13.17
2018-02-13T08:15:32.956Z,12.63
2018-02-13T08:18:00.473Z,11.87
2018-02-13T08:20:29.345Z,11.30
2018-02-13T08:22:56.880Z,10.73
2018-02-13T08:25:25.599Z,12.63
2018-02-13T08:27:54.931Z,11.90
2018-02-13T08:30:22.472Z,11.97
2018-02-13T08:32:49.993Z,11.10
2018-02-13T08:35:19.026Z,11.30
2018-02-13T08:37:46.544Z,9.53
2018-02-13T08:40:14.065Z,9.80
2018-02-13T08:42:41.996Z,9.90
2018-02-13T08:45:09.519Z,8.90
2018-02-13T08:47:37.809Z,9.33
2018-02-13T08:50:06.165Z,9.27
2018-02-13T08:52:34.466Z,7.97
2018-02-13T08:55:01.981Z,8.00
2018-02-13T08:57:29.490Z,7.20
2018-02-13T08:59:57.008Z,7.17
2018-02-13T09:02:25.288Z,7.77
2018-02-13T09:04:53.581Z,6.43
2018-02-13T09:07:21.850Z,7.30
2018-02-13T09:09:51.585Z,6.53
2018-02-13T09:12:19.095Z,6.30
2018-02-13T09:14:47.095Z,6.17
2018-02-13T09:17:14.605Z,6.60
2018-02-13T09:19:42.303Z,6.57
2018-02-13T09:22:10.913Z,6.83
2018-02-13T09:24:38.428Z,6.80
2018-02-13T09:27:06.448Z,6.80
2018-02-13T09:29:33.971Z,6.53
2018-02-13T09:32:02.482Z,6.27
2018-02-13T09:34:29.997Z,6.43
2018-02-13T09:36:58.614Z,6.10
2018-02-13T09:39:26.332Z,6.23
2018-02-13T09:41:53.859Z,6.73
2018-02-13T09:44:21.372Z,8.27
2018-02-13T09:46:49.979Z,6.27
2018-02-13T09:49:17.495Z,6.07
2018-02-13T09:51:46.358Z,7.13
2018-02-13T09:54:14.446Z,6.10
2018-02-13T09:56:41.972Z,6.27
2018-02-13T09:59:09.513Z,6.00
2018-02-13T10:01:39.445Z,5.73
2018-02-13T10:04:07.556Z,5.63
2018-02-13T10:06:35.793Z,5.60
2018-02-13T10:09:03.308Z,5.63
2018-02-13T10:11:31.602Z,6.27
2018-02-13T10:13:59.651Z,5.00
2018-02-13T10:16:28.782Z,5.37
2018-02-13T10:18:56.290Z,5.80
2018-02-13T10:21:24.567Z,5.47
2018-02-13T10:23:52.857Z,5.90
2018-02-13T10:26:21.548Z,5.60
2018-02-13T10:28:50.724Z,5.30
2018-02-13T10:31:18.999Z,5.33
2018-02-13T10:33:47.620Z,5.80
2018-02-13T10:36:15.133Z,5.93
2018-02-13T10:38:42.641Z,5.00
2018-02-13T10:41:10.155Z,5.30
2018-02-13T10:43:38.982Z,5.43
2018-02-13T10:46:06.519Z,5.47
2018-02-13T10:48:34.476Z,4.83
2018-02-13T10:51:02.755Z,4.20
2018-02-13T10:53:31.064Z,4.80
2018-02-13T10:55:58.892Z,5.50
2018-02-13T10:58:27.846Z,3.87
2018-02-13T11:01:00.991Z,4.00
2018-02-13T11:03:28.500Z,3.97
2018-02-13T11:05:58.440Z,3.40
2018-02-13T11:08:26.718Z,3.93
2018-02-13T11:10:55.006Z,4.27
2018-02-13T11:13:23.316Z,4.27
2018-02-13T11:15:51.352Z,4.30
2018-02-13T11:18:19.627Z,3.90
2018-02-13T11:20:47.925Z,4.00
2018-02-13T11:23:15.897Z,3.70
2018-02-13T11:25:43.432Z,3.80
2018-02-13T11:28:12.345Z,3.50
2018-02-13T11:30:39.854Z,4.30
2018-02-13T11:33:07.373Z,4.00
2018-02-13T11:35:34.883Z,3.30
2018-02-13T11:38:03.161Z,3.03
2018-02-13T11:40:31.455Z,3.07
2018-02-13T11:42:58.973Z,3.17
2018-02-13T11:45:26.475Z,3.33
2018-02-13T11:47:54.000Z,2.90
2018-02-13T11:50:22.269Z,3.60
2018-02-13T11:52:51.167Z,3.33
2018-02-13T11:55:19.447Z,2.90
2018-02-13T11:57:47.721Z,2.30
2018-02-13T12:00:15.999Z,2.67
2018-02-13T12:02:44.275Z,2.43
2018-02-13T12:05:12.567Z,2.43
2018-02-13T12:07:41.952Z,2.93
2018-02-13T12:10:10.232Z,3.00
2018-02-13T12:12:38.523Z,2.90
2018-02-13T12:15:08.626Z,2.67
2018-02-13T12:17:37.478Z,2.83
2018-02-13T12:20:05.762Z,2.40
2018-02-13T12:22:33.272Z,2.23
2018-02-13T12:25:00.780Z,2.13
2018-02-13T12:27:28.866Z,2.80
2018-02-13T12:29:57.139Z,2.10
2018-02-13T12:32:25.422Z,1.87
2018-02-13T12:34:53.708Z,2.10
2018-02-13T12:37:21.625Z,2.87
2018-02-13T12:39:49.132Z,2.07
2018-02-13T12:42:16.661Z,2.60
2018-02-13T12:44:44.168Z,4.87
2018-02-13T12:47:11.674Z,3.60
2018-02-13T12:49:39.186Z,2.30
2018-02-13T12:52:07.252Z,2.43
2018-02-13T12:54:34.763Z,1.80
2018-02-13T12:57:03.048Z,1.30
2018-02-13T12:59:31.317Z,1.73
2018-02-13T13:01:59.367Z,1.73
2018-02-13T13:04:26.876Z,1.40
2018-02-13T13:06:54.416Z,1.47
2018-02-13T13:09:22.752Z,1.50
2018-02-13T13:11:50.276Z,3.33
2018-02-13T13:14:18.059Z,1.30
2018-02-13T13:16:45.564Z,1.00
2018-02-13T13:19:13.849Z,1.37
2018-02-13T13:21:42.140Z,1.20
2018-02-13T13:24:09.590Z,1.23
2018-02-13T13:26:37.029Z,1.37
2018-02-13T13:29:05.516Z,1.90
2018-02-13T13:31:33.741Z,1.40
2018-02-13T13:34:01.194Z,1.67
2018-02-13T13:36:29.157Z,1.40
2018-02-13T13:38:58.022Z,1.43
2018-02-13T13:41:25.464Z,1.60
2018-02-13T13:43:53.697Z,1.60
2018-02-13T13:46:21.581Z,2.23
2018-02-13T13:48:49.036Z,2.10
2018-02-13T13:51:16.493Z,2.83
2018-02-13T13:53:43.932Z,2.00
2018-02-13T13:56:11.393Z,1.40
2018-02-13T13:58:38.844Z,1.70
2018-02-13T14:01:06.841Z,1.57
2018-02-13T14:03:35.073Z,1.57
2018-02-13T14:06:02.737Z,1.70
2018-02-13T14:08:30.189Z,1.40
2018-02-13T14:10:57.636Z,1.57
2018-02-13T14:13:25.086Z,1.40
2018-02-13T14:15:52.527Z,0.97
2018-02-13T14:18:29.876Z,1.60
2018-02-13T14:20:57.341Z,1.50
2018-02-13T14:23:26.144Z,1.50
2018-02-13T14:25:54.380Z,2.27
2018-02-13T14:28:22.930Z,1.37
2018-02-13T14:30:50.369Z,1.53
2018-02-13T14:33:18.225Z,7.53
2018-02-13T14:35:46.453Z,2.70
2018-02-13T14:38:14.430Z,3.30
2018-02-13T14:40:42.313Z,2.70
2018-02-13T14:43:09.758Z,1.97
2018-02-13T14:45:39.130Z,1.83
2018-02-13T14:48:06.560Z,2.43
2018-02-13T14:50:34.005Z,1.60
2018-02-13T14:53:01.448Z,2.13
2018-02-13T14:55:29.661Z,4.23
2018-02-13T14:57:57.526Z,1.90
2018-02-13T15:00:24.967Z,1.50
2018-02-13T15:02:53.073Z,1.70
2018-02-13T15:05:20.526Z,1.60
2018-02-13T15:07:48.458Z,1.90
2018-02-13T15:10:15.904Z,2.07
2018-02-13T15:12:43.353Z,2.10
2018-02-13T15:15:12.004Z,2.70
2018-02-13T15:17:40.610Z,1.73
2018-02-13T15:20:08.062Z,2.43
2018-02-13T15:22:35.509Z,1.80
2018-02-13T15:25:03.486Z,1.90
2018-02-13T15:27:30.925Z,1.97
2018-02-13T15:29:58.378Z,2.27
2018-02-13T15:32:25.820Z,1.90
2018-02-13T15:34:53.289Z,2.00
2018-02-13T15:37:20.731Z,2.10
2018-02-13T15:39:48.172Z,2.47
2018-02-13T15:42:15.618Z,2.17
2018-02-13T15:44:45.590Z,2.23
2018-02-13T15:47:13.814Z,1.70
2018-02-13T15:49:41.268Z,1.80
2018-02-13T15:52:10.654Z,1.60
2018-02-13T15:54:38.869Z,1.90
2018-02-13T15:57:06.770Z,1.53
2018-02-13T15:59:34.985Z,1.60
2018-02-13T16:02:02.446Z,2.07
2018-02-13T16:04:30.308Z,2.23
2018-02-13T16:07:00.283Z,2.07
2018-02-13T16:09:28.434Z,2.37
2018-02-13T16:11:55.879Z,3.70
2018-02-13T16:14:24.134Z,2.60
2018-02-13T16:16:51.574Z,2.27
2018-02-13T16:19:19.052Z,2.30
2018-02-13T16:21:46.865Z,2.47
2018-02-13T16:24:14.390Z,2.20
2018-02-13T16:26:41.855Z,2.00
2018-02-13T16:29:13.013Z,2.20
2018-02-13T16:31:41.603Z,2.63
2018-02-13T16:34:09.041Z,2.20
2018-02-13T16:36:36.716Z,2.23
2018-02-13T16:39:04.676Z,2.00
2018-02-13T16:41:32.124Z,3.40
2018-02-13T16:43:59.565Z,3.40
2018-02-13T16:46:27.129Z,2.47
2018-02-13T16:48:55.126Z,2.60
2018-02-13T16:51:22.660Z,2.20
2018-02-13T16:53:50.121Z,2.70
2018-02-13T16:56:17.573Z,2.53
2018-02-13T16:58:45.440Z,2.10
2018-02-13T17:01:12.881Z,1.93
2018-02-13T17:03:40.345Z,1.80
2018-02-13T17:06:07.796Z,2.17
2018-02-13T17:08:36.389Z,1.87
2018-02-13T17:11:03.832Z,1.90
2018-02-13T17:13:31.297Z,2.20
2018-02-13T17:15:59.161Z,1.73
2018-02-13T17:18:26.902Z,2.00
2018-02-13T17:20:54.904Z,1.97
2018-02-13T17:23:22.359Z,2.50
2018-02-13T17:25:49.804Z,2.40
2018-02-13T17:28:17.812Z,2.30
2018-02-13T17:30:46.438Z,2.17
2018-02-13T17:33:14.425Z,2.53
2018-02-13T17:35:41.884Z,2.37
2018-02-13T17:38:09.336Z,2.20
2018-02-13T17:40:37.254Z,2.90
2018-02-13T17:43:06.017Z,2.47
2018-02-13T17:45:33.460Z,2.50
2018-02-13T17:48:01.760Z,2.60
2018-02-13T17:50:29.977Z,2.27
2018-02-13T17:52:57.989Z,2.77
2018-02-13T17:55:25.763Z,2.83
2018-02-13T17:57:53.482Z,2.90
2018-02-13T18:00:20.928Z,2.70
2018-02-13T18:02:48.377Z,2.23
2018-02-13T18:05:16.406Z,3.10
2018-02-13T18:07:43.854Z,3.30
2018-02-13T18:10:11.308Z,3.73
2018-02-13T18:12:38.776Z,3.00
2018-02-13T18:15:06.814Z,3.10
2018-02-13T18:17:34.261Z,3.40
2018-02-13T18:20:02.485Z,2.83
2018-02-13T18:22:30.697Z,3.00
2018-02-13T18:25:00.737Z,3.13
2018-02-13T18:27:28.638Z,2.80
2018-02-13T18:29:56.873Z,3.10
2018-02-13T18:32:24.378Z,2.60
2018-02-13T18:34:52.629Z,2.80
2018-02-13T18:37:20.884Z,3.40
2018-02-13T18:39:48.760Z,3.20
2018-02-13T18:42:16.310Z,3.60
2018-02-13T18:44:45.670Z,3.20
2018-02-13T18:47:13.120Z,3.33
2018-02-13T18:49:40.565Z,2.87
2018-02-13T18:54:36.260Z,3.73
2018-02-13T18:57:03.713Z,2.80
2018-02-13T18:59:31.264Z,3.70
2018-02-13T19:01:59.752Z,3.37
2018-02-13T19:04:27.199Z,2.80
2018-02-13T19:06:54.668Z,2.90
2018-02-13T19:09:22.109Z,2.60
2018-02-13T19:11:49.552Z,2.77
2018-02-13T19:14:17.017Z,2.90
2018-02-13T19:19:11.908Z,3.17
2018-02-13T19:21:39.369Z,3.60
2018-02-13T19:24:06.816Z,2.83
2018-02-13T19:26:34.264Z,2.90
2018-02-13T19:29:01.716Z,2.80
2018-02-13T19:31:29.165Z,3.43
2018-02-13T19:33:57.384Z,3.73
2018-02-13T19:36:24.832Z,3.83
2018-02-13T19:38:52.276Z,3.53
2018-02-13T19:41:19.733Z,3.67
2018-02-13T19:43:47.184Z,2.90
2018-02-13T19:46:14.666Z,3.30
2018-02-13T19:48:42.144Z,3.60
2018-02-13T19:51:09.592Z,3.37
2018-02-13T19:53:37.961Z,3.80
2018-02-13T19:56:05.521Z,3.30
2018-02-13T19:58:33.521Z,3.10
2018-02-13T20:01:00.993Z,3.30
2018-02-13T20:03:29.205Z,3.20
2018-02-13T20:05:57.517Z,3.20
2018-02-13T20:08:24.965Z,3.23
2018-02-13T20:10:53.437Z,3.97
2018-02-13T20:13:21.305Z,3.53
2018-02-13T20:15:48.861Z,3.63
2018-02-13T20:18:16.331Z,2.93
2018-02-13T20:20:43.803Z,3.10
2018-02-13T20:23:11.253Z,3.20
2018-02-13T20:25:38.696Z,3.30
2018-02-13T20:28:06.142Z,3.60
2018-02-13T20:30:33.589Z,3.27
2018-02-13T20:33:01.561Z,3.13
2018-02-13T20:35:29.121Z,3.03
2018-02-13T20:37:56.598Z,3.17
2018-02-13T20:40:24.033Z,2.70
2018-02-13T20:42:51.482Z,3.20
2018-02-13T20:45:18.949Z,3.00
2018-02-13T20:47:46.401Z,3.27
2018-02-13T20:50:13.873Z,3.33
2018-02-13T20:52:41.425Z,3.50
2018-02-13T20:55:08.881Z,3.10
2018-02-13T20:57:37.060Z,3.50
2018-02-13T21:00:06.402Z,3.67
2018-02-13T21:02:34.610Z,3.77
2018-02-13T21:05:02.057Z,3.77
2018-02-13T21:07:29.941Z,3.53
2018-02-13T21:09:57.390Z,3.87
2018-02-13T21:12:24.869Z,3.17
2018-02-13T21:14:53.212Z,3.47
2018-02-13T21:17:20.656Z,3.47
2018-02-13T21:19:48.113Z,3.93
2018-02-13T21:22:15.981Z,3.30
2018-02-13T21:24:43.439Z,3.63
2018-02-13T21:27:11.097Z,3.17
2018-02-13T21:29:38.566Z,4.00
2018-02-13T21:32:06.015Z,3.80
2018-02-13T21:34:34.299Z,4.03
2018-02-13T21:37:02.575Z,3.90
2018-02-13T21:39:30.055Z,4.47
2018-02-13T21:41:57.502Z,4.30
2018-02-13T21:44:28.727Z,4.20
2018-02-13T21:46:56.882Z,3.97
2018-02-13T21:49:24.330Z,3.83
2018-02-13T21:51:51.785Z,4.23
2018-02-13T21:54:19.246Z,4.07
2018-02-13T21:56:47.309Z,4.67
2018-02-13T21:59:15.531Z,4.53
2018-02-13T22:01:42.981Z,4.40
2018-02-13T22:04:10.431Z,4.37
2018-02-13T22:06:41.017Z,4.67
2018-02-13T22:09:09.633Z,5.20
2018-02-13T22:11:37.086Z,4.43
2018-02-13T22:14:04.551Z,4.77
2018-02-13T22:16:32.010Z,5.23
2018-02-13T22:18:59.458Z,4.63
2018-02-13T22:21:26.902Z,4.80
2018-02-13T22:23:54.353Z,4.77
2018-02-13T22:26:24.221Z,4.87
2018-02-13T22:28:51.680Z,4.80
2018-02-13T22:31:19.141Z,4.73
2018-02-13T22:33:46.594Z,5.07
2018-02-13T22:36:14.593Z,4.77
2018-02-13T22:38:42.801Z,5.00
2018-02-13T22:41:10.260Z,5.17
2018-02-13T22:43:38.542Z,4.93
2018-02-13T22:46:05.997Z,5.10
2018-02-13T22:48:33.443Z,5.13
2018-02-13T22:51:00.917Z,5.03
2018-02-13T22:53:28.913Z,5.13
2018-02-13T22:55:56.362Z,5.10
2018-02-13T22:58:23.813Z,4.50
2018-02-13T23:00:51.261Z,4.80
2018-02-13T23:03:19.321Z,4.90
2018-02-13T23:05:46.776Z,4.80
2018-02-13T23:08:14.649Z,4.87
2018-02-13T23:10:42.101Z,4.67
2018-02-13T23:13:09.552Z,5.03
2018-02-13T23:15:37.021Z,4.47
2018-02-13T23:18:04.479Z,4.97
2018-02-13T23:20:31.917Z,4.97
2018-02-13T23:22:59.376Z,4.90
2018-02-13T23:25:26.845Z,5.03
2018-02-13T23:27:54.840Z,4.90
2018-02-13T23:30:22.721Z,5.33
2018-02-13T23:32:50.940Z,4.80
2018-02-13T23:35:18.392Z,4.63
2018-02-13T23:37:45.845Z,5.40
2018-02-13T23:40:13.299Z,5.33
2018-02-13T23:42:40.757Z,5.00
2018-02-13T23:45:08.231Z,5.30
2018-02-13T23:47:36.086Z,5.27
2018-02-13T23:50:03.573Z,4.90
2018-02-13T23:52:31.313Z,4.93
2018-02-13T23:54:58.764Z,4.90
2018-02-13T23:57:26.212Z,5.33
2018-02-13T23:59:53.680Z,5.07
